createdAt,value
2022-10-26T00:01:22.071Z,100701.84
2022-10-26T00:03:49.955Z,100700.22
2022-10-26T00:06:25.061Z,100707.00
2022-10-26T00:08:53.724Z,100711.34
2022-10-26T00:11:23.034Z,100700.47
2022-10-26T00:13:51.182Z,100701.06
2022-10-26T00:16:24.613Z,100701.69
2022-10-26T00:18:52.648Z,100709.50
2022-10-26T00:21:20.421Z,100713.44
2022-10-26T00:23:48.306Z,100718.38
2022-10-26T00:26:16.002Z,100717.34
2022-10-26T00:28:43.760Z,100711.13
2022-10-26T00:31:15.892Z,100706.41
2022-10-26T00:33:43.640Z,100709.88
2022-10-26T00:36:14.056Z,100702.06
2022-10-26T00:38:46.216Z,100708.81
2022-10-26T00:41:19.644Z,100715.13
2022-10-26T00:43:47.988Z,100714.53
2022-10-26T00:46:41.987Z,100706.13
2022-10-26T00:49:21.559Z,100711.47
2022-10-26T00:51:52.947Z,100711.66
2022-10-26T00:54:21.262Z,100714.16
2022-10-26T00:56:52.117Z,100719.75
2022-10-26T00:59:22.713Z,100711.72
2022-10-26T01:01:52.042Z,100714.41
2022-10-26T01:04:20.335Z,100714.41
2022-10-26T01:06:49.202Z,100711.97
2022-10-26T01:09:19.018Z,100715.69
2022-10-26T01:11:46.953Z,100715.25
2022-10-26T01:14:18.120Z,100715.47
2022-10-26T01:17:00.203Z,100715.25
2022-10-26T01:19:47.930Z,100720.00
2022-10-26T01:22:40.760Z,100710.75
2022-10-26T01:25:33.862Z,100714.25
2022-10-26T01:28:06.669Z,100721.75
2022-10-26T01:30:39.242Z,100729.97
2022-10-26T01:33:15.840Z,100729.16
2022-10-26T01:36:04.222Z,100730.63
2022-10-26T01:38:41.029Z,100729.16
2022-10-26T01:41:28.583Z,100731.84
2022-10-26T01:44:04.464Z,100721.94
2022-10-26T01:46:38.449Z,100722.34
2022-10-26T01:49:12.157Z,100721.94
2022-10-26T01:51:43.780Z,100723.63
2022-10-26T01:54:11.582Z,100716.81
2022-10-26T01:56:41.448Z,100721.75
2022-10-26T01:59:28.898Z,100721.34
2022-10-26T02:02:05.735Z,100723.41
2022-10-26T02:04:44.341Z,100725.66
2022-10-26T02:07:49.490Z,100724.63
2022-10-26T02:10:51.944Z,100730.19
2022-10-26T02:13:42.664Z,100734.31
2022-10-26T02:16:20.569Z,100735.56
2022-10-26T02:18:50.985Z,100742.53
2022-10-26T02:21:23.669Z,100746.22
2022-10-26T02:23:55.774Z,100739.03
2022-10-26T02:26:28.370Z,100740.00
2022-10-26T02:29:01.020Z,100737.19
2022-10-26T02:31:31.326Z,100736.88
2022-10-26T02:34:03.375Z,100742.44
2022-10-26T02:36:36.460Z,100750.06
2022-10-26T02:39:06.755Z,100741.44
2022-10-26T02:41:36.006Z,100750.50
2022-10-26T02:44:32.575Z,100746.97
2022-10-26T02:47:00.859Z,100747.84
2022-10-26T02:49:29.880Z,100746.22
2022-10-26T02:52:13.618Z,100753.78
2022-10-26T02:54:46.968Z,100751.75
2022-10-26T02:57:34.859Z,100752.84
2022-10-26T03:00:03.515Z,100752.56
2022-10-26T03:02:31.333Z,100749.66
2022-10-26T03:05:09.792Z,100756.56
2022-10-26T03:07:37.516Z,100762.13
2022-10-26T03:10:05.555Z,100759.84
2022-10-26T03:12:33.393Z,100769.16
2022-10-26T03:15:01.202Z,100772.00
2022-10-26T03:17:29.029Z,100770.97
2022-10-26T03:19:56.997Z,100773.47
2022-10-26T03:22:24.767Z,100783.97
2022-10-26T03:24:52.543Z,100774.91
2022-10-26T03:27:20.253Z,100777.19
2022-10-26T03:29:47.956Z,100782.75
2022-10-26T03:32:15.728Z,100783.75
2022-10-26T03:34:43.475Z,100781.69
2022-10-26T03:37:11.704Z,100787.03
2022-10-26T03:39:39.287Z,100789.25
2022-10-26T03:42:07.074Z,100795.47
2022-10-26T03:44:34.811Z,100798.41
2022-10-26T03:47:02.668Z,100794.41
2022-10-26T03:49:30.461Z,100802.78
2022-10-26T03:51:58.310Z,100802.78
2022-10-26T03:54:26.022Z,100801.56
2022-10-26T03:56:55.241Z,100804.00
2022-10-26T03:59:23.183Z,100802.78
2022-10-26T04:01:54.029Z,100806.03
2022-10-26T04:04:24.904Z,100805.81
2022-10-26T04:06:52.711Z,100797.13
2022-10-26T04:09:20.677Z,100796.56
2022-10-26T04:11:48.433Z,100799.84
2022-10-26T04:14:16.516Z,100797.38
2022-10-26T04:16:44.084Z,100804.75
2022-10-26T04:19:12.043Z,100803.31
2022-10-26T04:21:39.749Z,100811.78
2022-10-26T04:24:07.731Z,100807.47
2022-10-26T04:26:35.539Z,100810.03
2022-10-26T04:29:06.924Z,100808.88
2022-10-26T04:31:34.754Z,100813.84
2022-10-26T04:34:02.703Z,100807.31
2022-10-26T04:36:31.038Z,100811.28
2022-10-26T04:38:58.679Z,100813.16
2022-10-26T04:41:26.620Z,100816.03
2022-10-26T04:43:54.325Z,100815.84
2022-10-26T04:46:22.150Z,100822.44
2022-10-26T04:48:49.922Z,100828.56
2022-10-26T04:51:17.888Z,100811.66
2022-10-26T04:53:45.614Z,100814.53
2022-10-26T04:56:13.397Z,100819.31
2022-10-26T04:58:40.987Z,100821.38
2022-10-26T05:01:08.818Z,100830.44
2022-10-26T05:03:36.575Z,100837.19
2022-10-26T05:06:04.508Z,100841.97
2022-10-26T05:08:32.151Z,100835.16
2022-10-26T05:10:59.842Z,100847.16
2022-10-26T05:16:00.351Z,100838.91
2022-10-26T05:18:28.304Z,100844.50
2022-10-26T05:20:56.291Z,100853.22
2022-10-26T05:23:24.073Z,100854.75
2022-10-26T05:25:51.803Z,100846.72
2022-10-26T05:28:19.549Z,100862.44
2022-10-26T05:30:47.405Z,100858.56
2022-10-26T05:33:15.569Z,100867.03
2022-10-26T05:35:43.795Z,100869.53
2022-10-26T05:38:17.781Z,100866.19
2022-10-26T05:40:54.056Z,100866.19
2022-10-26T05:43:24.109Z,100863.34
2022-10-26T05:45:52.151Z,100872.38
2022-10-26T05:48:23.476Z,100875.94
2022-10-26T05:50:51.224Z,100876.94
2022-10-26T05:53:18.967Z,100876.75
2022-10-26T05:55:47.135Z,100883.19
2022-10-26T05:58:15.898Z,100883.38
2022-10-26T06:01:28.523Z,100882.84
2022-10-26T06:04:06.530Z,100887.75
2022-10-26T06:06:44.954Z,100890.88
2022-10-26T06:09:14.812Z,100885.53
2022-10-26T06:11:42.995Z,100898.13
2022-10-26T06:14:11.244Z,100892.44
2022-10-26T06:17:06.249Z,100895.22
2022-10-26T06:19:41.729Z,100892.78
2022-10-26T06:22:18.581Z,100895.00
2022-10-26T06:25:05.135Z,100903.72
2022-10-26T06:28:04.927Z,100907.03
2022-10-26T06:30:32.802Z,100909.91
2022-10-26T06:33:06.215Z,100909.94
2022-10-26T06:36:23.823Z,100913.94
2022-10-26T06:38:56.490Z,100910.44
2022-10-26T06:41:25.086Z,100920.53
2022-10-26T06:43:53.478Z,100922.25
2022-10-26T06:46:32.713Z,100930.75
2022-10-26T06:49:15.436Z,100925.41
2022-10-26T06:52:13.962Z,100924.19
2022-10-26T06:54:51.503Z,100925.81
2022-10-26T06:57:22.099Z,100927.63
2022-10-26T06:59:56.234Z,100933.13
2022-10-26T07:02:24.315Z,100928.63
2022-10-26T07:04:52.242Z,100930.75
2022-10-26T07:07:25.919Z,100930.41
2022-10-26T07:09:54.249Z,100936.81
2022-10-26T07:12:22.103Z,100930.06
2022-10-26T07:14:49.915Z,100939.81
2022-10-26T07:17:17.565Z,100932.75
2022-10-26T07:19:45.203Z,100932.97
2022-10-26T07:22:12.968Z,100942.91
2022-10-26T07:24:41.139Z,100936.88
2022-10-26T07:27:09.137Z,100933.56
2022-10-26T07:29:36.942Z,100946.78
2022-10-26T07:32:05.055Z,100942.66
2022-10-26T07:34:32.856Z,100944.78
2022-10-26T07:37:00.929Z,100947.66
2022-10-26T07:39:28.893Z,100954.72
2022-10-26T07:41:56.466Z,100958.63
2022-10-26T07:44:24.188Z,100951.34
2022-10-26T07:46:52.183Z,100947.88
2022-10-26T07:49:20.742Z,100950.56
2022-10-26T07:51:48.918Z,100964.00
2022-10-26T07:54:16.794Z,100954.16
2022-10-26T07:56:44.466Z,100960.16
2022-10-26T07:59:13.375Z,100962.44
2022-10-26T08:01:41.330Z,100972.75
2022-10-26T08:04:09.207Z,100971.06
2022-10-26T08:06:36.811Z,100969.25
2022-10-26T08:09:04.562Z,100973.34
2022-10-26T08:11:32.330Z,100980.16
2022-10-26T08:14:00.044Z,100984.06
2022-10-26T08:16:27.852Z,100985.09
2022-10-26T08:18:55.611Z,100988.22
2022-10-26T08:21:36.187Z,100983.41
2022-10-26T08:24:08.282Z,100988.75
2022-10-26T08:26:35.981Z,100987.53
2022-10-26T08:29:03.819Z,100984.06
2022-10-26T08:31:31.375Z,100989.69
2022-10-26T08:33:59.775Z,100998.97
2022-10-26T08:36:31.403Z,100996.09
2022-10-26T08:41:41.155Z,100998.56
2022-10-26T08:44:31.314Z,100999.75
2022-10-26T08:47:07.231Z,100997.44
2022-10-26T08:50:13.752Z,101002.94
2022-10-26T08:52:58.592Z,101006.34
2022-10-26T08:55:33.681Z,101012.53
2022-10-26T08:58:06.586Z,101012.91
2022-10-26T09:00:34.247Z,101013.81
2022-10-26T09:03:02.057Z,101013.16
2022-10-26T09:05:55.877Z,101014.41
2022-10-26T09:08:37.782Z,101018.41
2022-10-26T09:11:16.183Z,101026.03
2022-10-26T09:14:04.705Z,101022.59
2022-10-26T09:16:57.111Z,101031.72
2022-10-26T09:19:46.194Z,101029.03
2022-10-26T09:22:31.748Z,101033.59
2022-10-26T09:25:13.345Z,101031.53
2022-10-26T09:27:47.784Z,101025.53
2022-10-26T09:30:20.873Z,101033.16
2022-10-26T09:32:57.649Z,101037.53
2022-10-26T09:35:41.836Z,101043.88
2022-10-26T09:38:28.229Z,101047.47
2022-10-26T09:41:31.011Z,101055.06
2022-10-26T09:44:28.056Z,101053.91
2022-10-26T09:46:58.816Z,101058.25
2022-10-26T09:49:34.178Z,101063.88
2022-10-26T09:52:02.104Z,101059.53
2022-10-26T09:54:44.409Z,101067.66
2022-10-26T09:57:20.744Z,101063.81
2022-10-26T09:59:50.849Z,101065.09
2022-10-26T10:02:34.692Z,101067.78
2022-10-26T10:05:02.984Z,101062.81
2022-10-26T10:07:30.634Z,101060.97
2022-10-26T10:10:08.812Z,101067.78
2022-10-26T10:12:36.548Z,101064.28
2022-10-26T10:15:05.194Z,101071.13
2022-10-26T10:17:33.925Z,101063.06
2022-10-26T10:20:12.639Z,101069.53
2022-10-26T10:23:00.206Z,101058.59
2022-10-26T10:25:58.077Z,101059.03
2022-10-26T10:28:27.888Z,101058.19
2022-10-26T10:30:59.673Z,101065.59
2022-10-26T10:33:42.881Z,101057.38
2022-10-26T10:36:15.508Z,101062.75
2022-10-26T10:38:45.467Z,101067.72
2022-10-26T10:41:22.331Z,101062.75
2022-10-26T10:44:14.007Z,101059.66
2022-10-26T10:46:42.024Z,101059.81
2022-10-26T10:49:25.405Z,101051.19
2022-10-26T10:51:54.027Z,101049.50
2022-10-26T10:54:37.986Z,101058.41
2022-10-26T10:57:49.481Z,101052.66
2022-10-26T11:00:19.306Z,101056.09
2022-10-26T11:03:05.306Z,101056.91
2022-10-26T11:05:53.797Z,101062.97
2022-10-26T11:08:36.552Z,101052.44
2022-10-26T11:11:10.830Z,101054.06
2022-10-26T11:13:45.891Z,101057.94
2022-10-26T11:16:56.551Z,101058.72
2022-10-26T11:19:44.666Z,101063.66
2022-10-26T11:22:17.632Z,101060.22
2022-10-26T11:24:52.199Z,101067.72
2022-10-26T11:27:33.485Z,101067.81
2022-10-26T11:30:10.173Z,101070.72
2022-10-26T11:32:41.106Z,101068.66
2022-10-26T11:35:18.937Z,101061.94
2022-10-26T11:37:57.056Z,101065.22
2022-10-26T11:40:39.148Z,101065.75
2022-10-26T11:43:19.089Z,101066.66
2022-10-26T11:46:19.042Z,101075.81
2022-10-26T11:49:05.166Z,101078.22
2022-10-26T11:51:36.433Z,101078.75
2022-10-26T11:54:13.161Z,101077.72
2022-10-26T11:56:46.801Z,101071.13
2022-10-26T11:59:20.889Z,101077.31
2022-10-26T12:02:05.200Z,101069.34
2022-10-26T12:04:37.734Z,101079.44
2022-10-26T12:07:15.585Z,101081.78
2022-10-26T12:09:45.578Z,101087.13
2022-10-26T12:12:18.382Z,101088.03
2022-10-26T12:15:07.909Z,101083.09
2022-10-26T12:17:47.091Z,101096.50
2022-10-26T12:20:52.370Z,101092.41
2022-10-26T12:23:33.913Z,101088.09
2022-10-26T12:26:24.219Z,101089.78
2022-10-26T12:29:03.781Z,101099.94
2022-10-26T12:31:31.585Z,101092.53
2022-10-26T12:34:00.120Z,101091.72
2022-10-26T12:36:56.064Z,101090.06
2022-10-26T12:39:34.716Z,101094.22
2022-10-26T12:42:08.308Z,101086.38
2022-10-26T12:44:48.437Z,101098.97
2022-10-26T12:47:36.434Z,101096.06
2022-10-26T12:50:07.219Z,101090.91
2022-10-26T12:52:57.529Z,101098.13
2022-10-26T12:55:37.148Z,101081.59
2022-10-26T12:58:32.980Z,101088.38
2022-10-26T13:01:00.777Z,101093.00
2022-10-26T13:04:06.616Z,101097.16
2022-10-26T13:07:00.420Z,101093.88
2022-10-26T13:09:30.721Z,101091.19
2022-10-26T13:12:01.170Z,101087.88
2022-10-26T13:14:36.847Z,101089.13
2022-10-26T13:17:06.735Z,101089.75
2022-10-26T13:19:45.218Z,101086.03
2022-10-26T13:22:20.457Z,101087.47
2022-10-26T13:24:53.980Z,101093.69
2022-10-26T13:27:25.937Z,101094.22
2022-10-26T13:30:20.731Z,101096.16
2022-10-26T13:32:57.424Z,101093.50
2022-10-26T13:35:26.669Z,101096.25
2022-10-26T13:37:56.543Z,101098.13
2022-10-26T13:40:27.212Z,101096.66
2022-10-26T13:42:56.780Z,101105.97
2022-10-26T13:45:34.526Z,101098.97
2022-10-26T13:48:12.842Z,101096.75
2022-10-26T13:51:31.536Z,101108.16
2022-10-26T13:54:31.570Z,101102.53
2022-10-26T13:57:02.998Z,101104.59
2022-10-26T13:59:33.605Z,101106.63
2022-10-26T14:02:23.819Z,101106.13
2022-10-26T14:05:01.073Z,101103.06
2022-10-26T14:07:37.934Z,101099.38
2022-10-26T14:10:06.264Z,101102.97
2022-10-26T14:12:34.214Z,101105.03
2022-10-26T14:15:09.450Z,101097.56
2022-10-26T14:17:37.200Z,101092.34
2022-10-26T14:20:05.504Z,101090.91
2022-10-26T14:22:33.597Z,101101.44
2022-10-26T14:25:01.512Z,101104.63
2022-10-26T14:27:38.358Z,101095.78
2022-10-26T14:30:30.043Z,101103.44
2022-10-26T14:32:58.396Z,101104.59
2022-10-26T14:35:30.629Z,101110.78
2022-10-26T14:38:02.528Z,101103.56
2022-10-26T14:40:34.947Z,101105.97
2022-10-26T14:43:06.021Z,101102.16
2022-10-26T14:45:48.252Z,101102.94
2022-10-26T14:48:30.656Z,101107.78
2022-10-26T14:51:11.551Z,101104.19
2022-10-26T14:53:41.749Z,101109.47
2022-10-26T14:56:32.105Z,101111.91
2022-10-26T14:59:28.192Z,101117.19
2022-10-26T15:02:19.755Z,101123.53
2022-10-26T15:05:15.879Z,101115.88
2022-10-26T15:07:44.851Z,101118.44
2022-10-26T15:10:37.521Z,101122.19
2022-10-26T15:13:32.319Z,101132.97
2022-10-26T15:16:15.706Z,101128.72
2022-10-26T15:18:45.829Z,101136.09
2022-10-26T15:21:29.862Z,101138.41
2022-10-26T15:23:58.380Z,101136.47
2022-10-26T15:26:26.354Z,101128.66
2022-10-26T15:28:54.830Z,101140.84
2022-10-26T15:31:29.963Z,101142.47
2022-10-26T15:34:03.739Z,101144.34
2022-10-26T15:36:32.916Z,101132.91
2022-10-26T15:39:00.563Z,101139.38
2022-10-26T15:41:32.288Z,101148.25
2022-10-26T15:44:06.095Z,101149.28
2022-10-26T15:46:36.661Z,101148.28
2022-10-26T15:49:07.219Z,101152.88
2022-10-26T15:51:40.614Z,101153.06
2022-10-26T15:54:15.151Z,101155.94
2022-10-26T15:56:47.601Z,101154.81
2022-10-26T15:59:22.439Z,101158.31
2022-10-26T16:01:56.714Z,101153.91
2022-10-26T16:04:33.340Z,101163.75
2022-10-26T16:07:07.646Z,101165.00
2022-10-26T16:09:43.496Z,101167.16
2022-10-26T16:12:15.583Z,101161.75
2022-10-26T16:15:06.390Z,101169.59
2022-10-26T16:17:31.245Z,101174.09
2022-10-26T16:20:08.005Z,101175.09
2022-10-26T16:22:38.421Z,101174.81
2022-10-26T16:25:07.191Z,101176.66
2022-10-26T16:27:35.010Z,101182.59
2022-10-26T16:30:02.765Z,101188.75
2022-10-26T16:32:30.789Z,101188.91
2022-10-26T16:35:03.796Z,101188.47
2022-10-26T16:37:31.701Z,101187.31
2022-10-26T16:40:01.224Z,101189.53
2022-10-26T16:42:31.654Z,101183.50
2022-10-26T16:45:02.619Z,101188.41
2022-10-26T16:47:35.771Z,101183.06
2022-10-26T16:50:04.980Z,101178.06
2022-10-26T16:52:36.619Z,101188.59
2022-10-26T16:55:06.149Z,101189.78
2022-10-26T16:57:35.889Z,101189.78
2022-10-26T17:00:05.919Z,101190.97
2022-10-26T17:02:33.911Z,101187.47
2022-10-26T17:05:04.403Z,101194.47
2022-10-26T17:07:36.143Z,101193.19
2022-10-26T17:10:04.415Z,101192.69
2022-10-26T17:12:32.220Z,101197.56
2022-10-26T17:15:00.801Z,101194.25
2022-10-26T17:17:28.680Z,101196.75
2022-10-26T17:19:56.491Z,101192.78
2022-10-26T17:22:25.370Z,101193.28
2022-10-26T17:24:52.981Z,101197.16
2022-10-26T17:27:21.430Z,101196.69
2022-10-26T17:29:49.420Z,101193.84
2022-10-26T17:32:17.091Z,101205.84
2022-10-26T17:34:44.767Z,101205.47
2022-10-26T17:37:12.445Z,101207.31
2022-10-26T17:39:40.150Z,101212.66
2022-10-26T17:42:07.861Z,101211.84
2022-10-26T17:44:39.178Z,101211.19
2022-10-26T17:47:10.059Z,101218.16
2022-10-26T17:49:37.785Z,101218.53
2022-10-26T17:52:06.382Z,101218.53
2022-10-26T17:54:34.239Z,101224.69
2022-10-26T17:57:02.139Z,101219.53
2022-10-26T17:59:29.980Z,101224.22
2022-10-26T18:01:57.847Z,101221.75
2022-10-26T18:04:25.841Z,101227.44
2022-10-26T18:06:53.520Z,101222.94
2022-10-26T18:09:21.248Z,101222.94
2022-10-26T18:11:50.801Z,101229.63
2022-10-26T18:14:21.772Z,101227.81
2022-10-26T18:16:49.460Z,101228.16
2022-10-26T18:19:17.242Z,101235.97
2022-10-26T18:21:44.931Z,101232.66
2022-10-26T18:24:13.668Z,101237.81
2022-10-26T18:26:41.319Z,101240.84
2022-10-26T18:29:12.799Z,101233.84
2022-10-26T18:31:40.605Z,101244.53
2022-10-26T18:34:10.050Z,101242.84
2022-10-26T18:39:10.973Z,101250.22
2022-10-26T18:41:38.632Z,101248.91
2022-10-26T18:44:06.511Z,101258.94
2022-10-26T18:46:40.714Z,101255.97
2022-10-26T18:49:09.938Z,101263.66
2022-10-26T18:51:37.601Z,101267.88
2022-10-26T18:54:05.673Z,101273.03
2022-10-26T18:56:33.693Z,101269.03
2022-10-26T18:59:01.710Z,101269.38
2022-10-26T19:01:34.678Z,101268.91
2022-10-26T19:04:07.618Z,101275.78
2022-10-26T19:06:37.969Z,101275.97
2022-10-26T19:09:06.905Z,101272.31
2022-10-26T19:11:34.628Z,101277.84
2022-10-26T19:14:02.932Z,101287.50
2022-10-26T19:16:45.047Z,101276.00
2022-10-26T19:19:14.846Z,101279.19
2022-10-26T19:21:42.486Z,101285.53
2022-10-26T19:24:16.720Z,101285.53
2022-10-26T19:26:44.646Z,101292.22
2022-10-26T19:29:15.511Z,101289.38
2022-10-26T19:31:45.345Z,101309.88
2022-10-26T19:34:14.473Z,101298.38
2022-10-26T19:36:46.216Z,101303.72
2022-10-26T19:39:16.415Z,101305.38
2022-10-26T19:41:45.943Z,101302.38
2022-10-26T19:44:14.804Z,101310.69
2022-10-26T19:46:43.791Z,101314.19
2022-10-26T19:49:17.693Z,101319.84
2022-10-26T19:51:45.424Z,101320.31
2022-10-26T19:54:13.138Z,101322.66
2022-10-26T19:56:40.891Z,101322.78
2022-10-26T19:59:10.619Z,101322.28
2022-10-26T20:01:38.498Z,101326.25
2022-10-26T20:04:06.437Z,101330.91
2022-10-26T20:06:34.535Z,101330.75
2022-10-26T20:09:02.623Z,101328.06
2022-10-26T20:11:32.422Z,101335.75
2022-10-26T20:14:01.327Z,101326.34
2022-10-26T20:16:30.157Z,101328.88
2022-10-26T20:19:01.173Z,101329.16
2022-10-26T20:21:29.067Z,101336.88
2022-10-26T20:23:56.779Z,101338.06
2022-10-26T20:26:28.114Z,101335.19
2022-10-26T20:28:56.456Z,101335.19
2022-10-26T20:31:24.162Z,101334.38
2022-10-26T20:33:53.040Z,101334.72
2022-10-26T20:36:21.292Z,101329.25
2022-10-26T20:38:49.351Z,101327.91
2022-10-26T20:41:21.740Z,101330.78
2022-10-26T20:43:57.128Z,101336.31
2022-10-26T20:46:28.013Z,101342.16
2022-10-26T20:48:56.184Z,101334.50
2022-10-26T20:52:15.282Z,101339.16
2022-10-26T20:54:45.600Z,101338.69
2022-10-26T20:57:26.299Z,101340.19
2022-10-26T21:00:03.940Z,101340.06
2022-10-26T21:02:32.038Z,101345.06
2022-10-26T21:04:59.811Z,101346.22
2022-10-26T21:07:27.539Z,101349.06
2022-10-26T21:09:55.151Z,101339.53
2022-10-26T21:12:22.979Z,101345.91
2022-10-26T21:14:51.092Z,101353.38
2022-10-26T21:17:21.000Z,101362.25
2022-10-26T21:19:48.715Z,101352.06
2022-10-26T21:22:17.935Z,101356.06
2022-10-26T21:24:45.529Z,101352.06
2022-10-26T21:27:13.186Z,101354.91
2022-10-26T21:29:41.000Z,101357.44
2022-10-26T21:32:10.247Z,101356.91
2022-10-26T21:34:38.023Z,101350.59
2022-10-26T21:37:05.927Z,101356.06
2022-10-26T21:39:33.642Z,101359.06
2022-10-26T21:42:03.089Z,101364.25
2022-10-26T21:44:41.030Z,101363.41
2022-10-26T21:47:11.320Z,101360.09
2022-10-26T21:52:12.626Z,101370.91
2022-10-26T21:54:40.294Z,101371.06
2022-10-26T21:57:08.112Z,101366.91
2022-10-26T21:59:35.747Z,101377.41
2022-10-26T22:02:03.746Z,101375.25
2022-10-26T22:04:31.732Z,101365.75
2022-10-26T22:06:59.577Z,101375.91
2022-10-26T22:09:27.208Z,101362.72
2022-10-26T22:11:54.994Z,101369.91
2022-10-26T22:14:22.952Z,101368.91
2022-10-26T22:16:50.728Z,101371.41
2022-10-26T22:19:18.375Z,101366.22
2022-10-26T22:21:46.155Z,101367.25
2022-10-26T22:24:13.835Z,101372.91
2022-10-26T22:26:41.527Z,101366.25
2022-10-26T22:29:09.503Z,101379.91
2022-10-26T22:31:39.591Z,101368.38
2022-10-26T22:34:13.289Z,101377.25
2022-10-26T22:36:41.252Z,101374.72
2022-10-26T22:39:09.109Z,101375.56
2022-10-26T22:41:36.772Z,101383.72
2022-10-26T22:44:04.622Z,101379.03
2022-10-26T22:46:32.551Z,101377.72
2022-10-26T22:49:01.943Z,101383.88
2022-10-26T22:51:32.243Z,101378.06
2022-10-26T22:54:01.966Z,101375.22
2022-10-26T22:56:31.247Z,101378.41
2022-10-26T22:58:59.646Z,101374.56
2022-10-26T23:01:31.524Z,101379.72
2022-10-26T23:04:00.173Z,101377.06
2022-10-26T23:06:30.824Z,101370.06
2022-10-26T23:08:58.933Z,101365.72
2022-10-26T23:11:28.525Z,101362.22
2022-10-26T23:14:00.743Z,101368.72
2022-10-26T23:16:29.811Z,101372.03
2022-10-26T23:18:58.820Z,101363.72
2022-10-26T23:21:28.358Z,101361.72
2022-10-26T23:23:56.942Z,101365.34
2022-10-26T23:26:24.804Z,101367.84
2022-10-26T23:28:52.460Z,101362.53
2022-10-26T23:31:23.729Z,101357.66
2022-10-26T23:33:52.203Z,101366.97
2022-10-26T23:36:20.490Z,101365.44
2022-10-26T23:38:48.621Z,101372.75
2022-10-26T23:41:16.462Z,101372.22
2022-10-26T23:43:44.274Z,101376.03
2022-10-26T23:46:15.082Z,101376.19
2022-10-26T23:48:42.975Z,101380.00
2022-10-26T23:51:10.584Z,101385.00
2022-10-26T23:53:38.529Z,101378.00
2022-10-26T23:56:06.614Z,101387.28
2022-10-26T23:58:34.510Z,101381.13
